logo
Rechercher aéroport 
image banner adimage banner adimage banner ad
image banner ad

FLFR - Luangwa

Situé à Luangwa, Zambia

ICAO - , IATA -

Données fournies par Airmate  

Information générale

Coordonnées: S15°36'24" E30°23'59"
Élévation : 1100 feet MSL.
Variation magnétique : -6° East
Voir autres Aéroports à Lusaka Province

Données opérationnelles

Special qualification required
Heure actuelle UTC:
Heure actuelle locale:
Météo à : - ( 0 km )
METAR: SUMU 290912Z 00000KT 3000 0800W R19/1100N R25/P2000N PRFG BR FEW001 BKN200 06/06 Q1025 TEMPO FG
Voir NOTAMs / SUP AIP / TFR affectant cet aéroport [VIEW]
Fréquences de communication: [VIEW]

Pistes:

Identifiant RWYQFULongueur (ft)Largeur (ft)SurfaceLDA (ft)
27265°318354DIRT
0985°318354DIRT

Coordonnées de l'aéroport

Adresse: Luangwa Zambia

Vue satellite de FLFR